createdAt,value
2018-12-19T00:01:15.819Z,23.57
2018-12-19T00:03:46.697Z,30.40
2018-12-19T00:06:17.255Z,22.77
2018-12-19T00:08:45.693Z,21.87
2018-12-19T00:11:14.384Z,26.87
2018-12-19T00:13:43.421Z,22.17
2018-12-19T00:16:12.175Z,25.20
2018-12-19T00:18:40.655Z,22.43
2018-12-19T00:21:09.370Z,27.30
2018-12-19T00:23:38.231Z,24.33
2018-12-19T00:26:06.696Z,21.17
2018-12-19T00:28:37.260Z,23.00
2018-12-19T00:31:07.773Z,24.37
2018-12-19T00:33:37.787Z,30.97
2018-12-19T00:36:07.823Z,28.20
2018-12-19T00:38:36.768Z,26.93
2018-12-19T00:41:05.393Z,28.83
2018-12-19T00:43:34.063Z,27.63
2018-12-19T00:46:02.749Z,26.10
2018-12-19T00:48:31.474Z,26.93
2018-12-19T00:51:00.347Z,31.20
2018-12-19T00:53:29.802Z,26.60
2018-12-19T00:55:58.544Z,26.93
2018-12-19T00:58:27.297Z,31.90
2018-12-19T01:00:55.335Z,31.70
2018-12-19T01:03:23.349Z,27.10
2018-12-19T01:05:51.308Z,29.60
2018-12-19T01:08:19.307Z,24.23
2018-12-19T01:10:47.313Z,28.63
2018-12-19T01:13:16.653Z,23.43
2018-12-19T01:15:44.629Z,27.87
2018-12-19T01:18:13.244Z,27.23
2018-12-19T01:20:41.665Z,21.13
2018-12-19T01:23:10.373Z,24.73
2018-12-19T01:25:38.388Z,27.53
2018-12-19T01:28:06.555Z,24.13
2018-12-19T01:30:34.527Z,24.13
2018-12-19T01:33:02.509Z,27.37
2018-12-19T01:35:31.499Z,22.47
2018-12-19T01:37:59.447Z,18.17
2018-12-19T01:40:28.322Z,25.27
2018-12-19T01:42:56.621Z,23.43
2018-12-19T01:45:25.458Z,28.03
2018-12-19T01:47:54.436Z,21.00
2018-12-19T01:50:23.248Z,20.63
2018-12-19T01:52:51.721Z,21.87
2018-12-19T01:55:20.225Z,25.33
2018-12-19T01:57:48.897Z,21.43
2018-12-19T02:00:19.561Z,19.83
2018-12-19T02:02:48.341Z,22.53
2018-12-19T02:05:16.293Z,19.80
2018-12-19T02:07:44.257Z,20.07
2018-12-19T02:10:12.429Z,21.73
2018-12-19T02:12:40.450Z,20.23
2018-12-19T02:15:08.439Z,21.63
2018-12-19T02:17:36.968Z,16.27
2018-12-19T02:20:05.771Z,20.00
2018-12-19T02:22:35.418Z,19.63
2018-12-19T02:25:04.305Z,17.17
2018-12-19T02:27:34.152Z,17.60
2018-12-19T02:30:02.803Z,16.73
2018-12-19T02:32:32.572Z,19.57
2018-12-19T02:35:01.233Z,17.43
2018-12-19T02:37:29.716Z,16.03
2018-12-19T02:39:58.626Z,16.50
2018-12-19T02:42:27.075Z,16.43
2018-12-19T02:44:55.964Z,18.07
2018-12-19T02:47:24.478Z,14.23
2018-12-19T02:49:53.116Z,17.47
2018-12-19T02:52:21.828Z,17.17
2018-12-19T02:54:50.547Z,14.47
2018-12-19T02:57:18.790Z,12.97
2018-12-19T02:59:47.243Z,14.80
2018-12-19T03:02:15.768Z,16.10
2018-12-19T03:04:44.436Z,14.90
2018-12-19T03:07:12.904Z,14.43
2018-12-19T03:09:43.113Z,11.30
2018-12-19T03:12:11.729Z,12.33
2018-12-19T03:14:40.384Z,18.30
2018-12-19T03:17:09.092Z,14.40
2018-12-19T03:19:37.549Z,10.90
2018-12-19T03:22:06.033Z,13.00
2018-12-19T03:24:34.738Z,17.70
2018-12-19T03:27:04.441Z,12.77
2018-12-19T03:29:33.130Z,14.37
2018-12-19T03:32:01.609Z,14.67
2018-12-19T03:34:30.074Z,11.10
2018-12-19T03:36:58.785Z,13.40
2018-12-19T03:39:27.280Z,9.87
2018-12-19T03:41:55.285Z,13.63
2018-12-19T03:44:24.011Z,14.87
2018-12-19T03:46:52.527Z,13.30
2018-12-19T03:49:21.729Z,12.60
2018-12-19T03:51:51.766Z,12.90
2018-12-19T03:54:20.672Z,10.17
2018-12-19T03:56:49.980Z,12.73
2018-12-19T03:59:18.608Z,10.03
2018-12-19T04:01:47.269Z,12.27
2018-12-19T04:04:15.977Z,11.63
2018-12-19T04:06:44.696Z,8.87
2018-12-19T04:09:13.323Z,14.80
2018-12-19T04:11:41.959Z,13.87
2018-12-19T04:14:10.499Z,9.23
2018-12-19T04:16:38.953Z,15.40
2018-12-19T04:19:07.658Z,11.07
2018-12-19T04:21:38.404Z,16.73
2018-12-19T04:24:06.857Z,12.47
2018-12-19T04:26:35.345Z,12.13
2018-12-19T04:29:03.842Z,16.97
2018-12-19T04:31:32.300Z,15.10
2018-12-19T04:34:00.785Z,9.77
2018-12-19T04:36:29.273Z,10.90
2018-12-19T04:38:57.773Z,11.07
2018-12-19T04:41:26.435Z,19.57
2018-12-19T04:43:55.151Z,17.97
2018-12-19T04:46:23.811Z,16.03
2018-12-19T04:48:52.293Z,13.73
2018-12-19T04:51:20.774Z,15.43
2018-12-19T04:53:49.440Z,19.27
2018-12-19T04:56:17.917Z,17.53
2018-12-19T04:58:46.419Z,19.63
2018-12-19T05:01:15.108Z,16.43
2018-12-19T05:03:43.588Z,15.43
2018-12-19T05:06:12.314Z,13.27
2018-12-19T05:08:40.291Z,19.47
2018-12-19T05:11:08.305Z,18.13
2018-12-19T05:13:36.341Z,18.13
2018-12-19T05:16:05.004Z,19.43
2018-12-19T05:18:33.669Z,17.20
2018-12-19T05:21:02.381Z,18.47
2018-12-19T05:23:31.047Z,20.70
2018-12-19T05:25:59.730Z,17.93
2018-12-19T05:28:28.472Z,18.40
2018-12-19T05:30:57.357Z,19.00
2018-12-19T05:33:25.417Z,18.57
2018-12-19T05:35:54.090Z,16.80
2018-12-19T05:38:22.953Z,13.47
2018-12-19T05:40:50.958Z,20.50
2018-12-19T05:43:18.977Z,13.40
2018-12-19T05:45:47.121Z,15.63
2018-12-19T05:48:15.150Z,14.70
2018-12-19T05:50:43.245Z,21.87
2018-12-19T05:53:11.270Z,22.43
2018-12-19T05:55:39.286Z,21.20
2018-12-19T05:58:07.359Z,19.03
2018-12-19T06:00:35.375Z,18.87
2018-12-19T06:03:05.405Z,15.13
2018-12-19T06:05:33.409Z,17.40
2018-12-19T06:08:01.349Z,12.67
2018-12-19T06:10:29.317Z,14.57
2018-12-19T06:12:57.295Z,20.43
2018-12-19T06:15:25.247Z,17.70
2018-12-19T06:17:53.212Z,12.97
2018-12-19T06:20:21.188Z,14.70
2018-12-19T06:22:49.160Z,15.97
2018-12-19T06:25:17.417Z,18.80
2018-12-19T06:27:47.654Z,22.77
2018-12-19T06:30:16.848Z,17.90
2018-12-19T06:32:44.830Z,19.37
2018-12-19T06:35:12.845Z,17.37
2018-12-19T06:37:40.823Z,12.80
2018-12-19T06:40:09.295Z,11.77
2018-12-19T06:42:37.285Z,18.87
2018-12-19T06:45:06.550Z,17.20
2018-12-19T06:47:34.524Z,13.50
2018-12-19T06:50:04.118Z,11.43
2018-12-19T06:52:32.493Z,14.83
2018-12-19T06:55:01.328Z,16.70
2018-12-19T06:57:29.817Z,12.97
2018-12-19T06:59:57.774Z,15.20
2018-12-19T07:02:26.122Z,19.20
2018-12-19T07:04:54.174Z,11.43
2018-12-19T07:07:22.137Z,11.97
2018-12-19T07:09:50.130Z,16.53
2018-12-19T07:12:18.156Z,13.80
2018-12-19T07:14:46.432Z,15.40
2018-12-19T07:17:14.442Z,13.70
2018-12-19T07:19:42.435Z,12.33
2018-12-19T07:22:10.415Z,12.07
2018-12-19T07:24:38.446Z,13.73
2018-12-19T07:27:06.485Z,10.93
2018-12-19T07:29:34.585Z,9.43
2018-12-19T07:32:02.561Z,11.40
2018-12-19T07:34:30.669Z,15.47
2018-12-19T07:36:58.652Z,14.33
2018-12-19T07:39:26.661Z,10.83
2018-12-19T07:41:55.103Z,13.90
2018-12-19T07:44:23.575Z,11.97
2018-12-19T07:46:52.047Z,11.50
2018-12-19T07:49:20.933Z,14.50
2018-12-19T07:51:49.857Z,10.53
2018-12-19T07:54:18.739Z,13.30
2018-12-19T07:56:47.214Z,9.40
2018-12-19T07:59:15.877Z,9.03
2018-12-19T08:01:44.356Z,10.37
2018-12-19T08:04:14.148Z,15.60
2018-12-19T08:06:43.374Z,13.07
2018-12-19T08:09:12.068Z,18.63
2018-12-19T08:11:40.777Z,14.03
2018-12-19T08:14:10.749Z,13.27
2018-12-19T08:16:39.539Z,13.03
2018-12-19T08:19:08.055Z,13.93
2018-12-19T08:21:37.001Z,13.10
2018-12-19T08:24:05.039Z,10.73
2018-12-19T08:26:34.306Z,12.33
2018-12-19T08:30:31.740Z,14.03
2018-12-19T08:32:59.717Z,14.97
2018-12-19T08:35:28.203Z,12.20
2018-12-19T08:37:57.096Z,11.27
2018-12-19T08:40:25.607Z,12.33
2018-12-19T08:42:54.032Z,14.37
2018-12-19T08:45:22.980Z,20.07
2018-12-19T08:47:51.676Z,17.47
2018-12-19T08:50:28.801Z,16.90
2018-12-19T08:52:57.648Z,15.00
2018-12-19T08:55:26.295Z,17.33
2018-12-19T08:57:54.735Z,18.53
2018-12-19T09:00:24.182Z,14.90
2018-12-19T09:02:52.746Z,14.90
2018-12-19T09:05:23.479Z,19.30
2018-12-19T09:07:52.243Z,19.57
2018-12-19T09:10:21.138Z,18.67
2018-12-19T09:12:50.075Z,14.13
2018-12-19T09:15:27.625Z,14.10
2018-12-19T09:17:55.603Z,16.03
2018-12-19T09:20:24.272Z,18.43
2018-12-19T09:22:52.972Z,16.80
2018-12-19T09:25:21.148Z,13.23
2018-12-19T09:27:49.302Z,20.87
2018-12-19T09:30:19.927Z,15.70
2018-12-19T09:32:49.502Z,17.90
2018-12-19T09:35:18.172Z,18.93
2018-12-19T09:37:46.628Z,15.93
2018-12-19T09:40:15.160Z,20.87
2018-12-19T09:42:43.997Z,17.67
2018-12-19T09:45:12.957Z,18.83
2018-12-19T09:47:41.773Z,14.60
2018-12-19T09:50:10.480Z,16.23
2018-12-19T09:52:39.524Z,16.97
2018-12-19T09:55:09.781Z,21.10
2018-12-19T09:57:38.634Z,13.77
2018-12-19T10:00:15.280Z,19.43
2018-12-19T10:02:43.760Z,11.70
2018-12-19T10:05:12.210Z,15.33
2018-12-19T10:07:40.711Z,15.27
2018-12-19T10:10:09.333Z,14.33
2018-12-19T10:12:38.090Z,16.23
2018-12-19T10:15:13.434Z,33.83
2018-12-19T10:17:42.216Z,24.27
2018-12-19T10:20:10.915Z,23.23
2018-12-19T10:22:39.948Z,18.97
2018-12-19T10:25:12.569Z,21.03
2018-12-19T10:27:41.212Z,17.87
2018-12-19T10:30:11.505Z,17.33
2018-12-19T10:32:40.622Z,17.80
2018-12-19T10:35:10.543Z,19.27
2018-12-19T10:37:39.042Z,17.67
2018-12-19T10:40:10.225Z,13.50
2018-12-19T10:42:38.702Z,12.33
2018-12-19T10:45:09.589Z,9.17
2018-12-19T10:47:38.325Z,13.70
2018-12-19T10:50:10.903Z,9.60
2018-12-19T10:52:39.787Z,13.87
2018-12-19T10:55:08.955Z,8.70
2018-12-19T10:57:37.472Z,7.73
2018-12-19T11:00:17.424Z,9.03
2018-12-19T11:02:45.921Z,10.67
2018-12-19T11:05:14.470Z,8.17
2018-12-19T11:07:42.929Z,8.33
2018-12-19T11:10:12.703Z,9.53
2018-12-19T11:12:42.182Z,9.27
2018-12-19T11:15:10.844Z,9.57
2018-12-19T11:17:39.568Z,9.43
2018-12-19T11:20:09.747Z,7.33
2018-12-19T11:22:38.151Z,6.77
2018-12-19T11:25:06.590Z,10.80
2018-12-19T11:27:35.130Z,12.27
2018-12-19T11:30:12.875Z,11.20
2018-12-19T11:32:42.578Z,11.63
2018-12-19T11:35:11.223Z,10.83
2018-12-19T11:37:40.077Z,13.10
2018-12-19T11:40:09.190Z,11.50
2018-12-19T11:42:40.979Z,13.47
2018-12-19T11:45:11.018Z,7.03
2018-12-19T11:47:40.877Z,11.70
2018-12-19T11:50:09.675Z,17.73
2018-12-19T11:52:38.784Z,19.07
2018-12-19T11:55:07.664Z,13.97
2018-12-19T11:57:36.673Z,17.50
2018-12-19T12:00:06.843Z,23.27
2018-12-19T12:02:36.398Z,16.87
2018-12-19T12:05:11.722Z,24.10
2018-12-19T12:07:44.554Z,14.07
2018-12-19T12:10:13.280Z,37.43
2018-12-19T12:12:43.190Z,16.80
2018-12-19T12:15:12.085Z,11.03
2018-12-19T12:17:42.818Z,22.70
2018-12-19T12:20:11.516Z,21.60
2018-12-19T12:22:41.285Z,26.27
2018-12-19T12:25:10.809Z,25.17
2018-12-19T12:27:39.583Z,30.90
2018-12-19T12:30:10.087Z,25.30
2018-12-19T12:32:38.341Z,20.07
2018-12-19T12:35:09.485Z,22.80
2018-12-19T12:37:37.489Z,10.87
2018-12-19T12:40:07.543Z,17.27
2018-12-19T12:42:37.430Z,22.93
2018-12-19T12:45:10.629Z,14.90
2018-12-19T12:47:40.927Z,11.63
2018-12-19T12:50:10.884Z,10.40
2018-12-19T12:52:39.964Z,10.90
2018-12-19T12:55:07.959Z,10.10
2018-12-19T12:57:36.861Z,14.13
2018-12-19T13:00:13.739Z,9.73
2018-12-19T13:02:43.734Z,8.47
2018-12-19T13:05:11.938Z,6.33
2018-12-19T13:07:39.957Z,10.47
2018-12-19T13:10:08.368Z,7.83
2018-12-19T13:12:36.379Z,7.90
2018-12-19T13:15:05.176Z,8.93
2018-12-19T13:17:33.987Z,10.30
2018-12-19T13:20:02.960Z,9.77
2018-12-19T13:22:32.477Z,10.37
2018-12-19T13:25:02.119Z,12.73
2018-12-19T13:27:32.187Z,11.07
2018-12-19T13:30:00.928Z,9.23
2018-12-19T13:32:29.586Z,9.67
2018-12-19T13:34:58.514Z,7.03
2018-12-19T13:37:27.613Z,14.23
2018-12-19T13:39:56.266Z,10.67
2018-12-19T13:42:24.305Z,9.37
2018-12-19T13:44:53.007Z,7.70
2018-12-19T13:47:21.724Z,8.60
2018-12-19T13:49:50.402Z,14.17
2018-12-19T13:52:19.321Z,14.87
2018-12-19T13:54:48.171Z,18.90
2018-12-19T13:57:17.114Z,10.63
2018-12-19T13:59:45.958Z,6.40
2018-12-19T14:02:14.662Z,7.40
2018-12-19T14:04:43.597Z,6.47
2018-12-19T14:07:12.553Z,7.30
2018-12-19T14:09:41.307Z,7.80
2018-12-19T14:12:12.406Z,5.67
2018-12-19T14:14:40.530Z,7.00
2018-12-19T14:17:09.470Z,7.37
2018-12-19T14:19:38.126Z,6.53
2018-12-19T14:22:07.021Z,9.80
2018-12-19T14:24:35.702Z,14.27
2018-12-19T14:27:04.385Z,17.07
2018-12-19T14:29:33.232Z,22.20
2018-12-19T14:32:01.725Z,11.93
2018-12-19T14:34:30.409Z,12.23
2018-12-19T14:36:58.930Z,9.33
2018-12-19T14:39:27.604Z,10.37
2018-12-19T14:41:56.250Z,7.67
2018-12-19T14:44:24.950Z,6.27
2018-12-19T14:46:53.492Z,6.00
2018-12-19T14:49:22.089Z,4.17
2018-12-19T14:51:50.583Z,6.20
2018-12-19T14:55:23.419Z,8.87
2018-12-19T14:57:52.409Z,18.23
2018-12-19T15:00:26.966Z,13.97
2018-12-19T15:02:56.009Z,17.07
2018-12-19T15:05:30.624Z,13.50
2018-12-19T15:07:59.576Z,13.40
2018-12-19T15:10:33.188Z,13.80
2018-12-19T15:13:07.455Z,9.20
2018-12-19T15:15:36.472Z,8.53
2018-12-19T15:18:05.661Z,9.70
2018-12-19T15:20:35.246Z,13.23
2018-12-19T15:23:03.916Z,10.93
2018-12-19T15:25:32.392Z,12.83
2018-12-19T15:28:00.866Z,10.40
2018-12-19T15:30:30.950Z,12.23
2018-12-19T15:32:59.808Z,15.67
2018-12-19T15:35:29.201Z,12.33
2018-12-19T15:38:05.044Z,10.30
2018-12-19T15:40:35.774Z,7.07
2018-12-19T15:43:04.620Z,7.87
2018-12-19T15:45:47.104Z,10.13
2018-12-19T15:48:30.599Z,7.53
2018-12-19T15:51:05.166Z,9.57
2018-12-19T15:53:33.835Z,8.70
2018-12-19T15:56:04.577Z,10.03
2018-12-19T15:58:35.554Z,6.63
2018-12-19T16:01:04.229Z,7.20
2018-12-19T16:03:39.788Z,9.97
2018-12-19T16:06:08.072Z,8.00
2018-12-19T16:08:36.790Z,7.10
2018-12-19T16:11:05.181Z,7.83
2018-12-19T16:13:33.344Z,6.73
2018-12-19T16:16:01.488Z,7.23
2018-12-19T16:18:29.530Z,6.07
2018-12-19T16:20:58.154Z,7.83
2018-12-19T16:23:26.826Z,7.13
2018-12-19T16:25:55.562Z,6.67
2018-12-19T16:28:24.425Z,8.37
2018-12-19T16:30:52.894Z,7.00
2018-12-19T16:33:21.609Z,6.93
2018-12-19T16:35:50.469Z,10.47
2018-12-19T16:38:18.959Z,9.97
2018-12-19T16:40:47.682Z,10.77
2018-12-19T16:43:16.693Z,9.23
2018-12-19T16:45:45.216Z,9.67
2018-12-19T16:48:13.721Z,8.90
2018-12-19T16:50:42.419Z,9.60
2018-12-19T16:53:10.574Z,6.93
2018-12-19T16:55:38.577Z,9.43
2018-12-19T16:58:06.593Z,8.87
2018-12-19T17:00:34.585Z,8.87
2018-12-19T17:03:21.161Z,9.00
2018-12-19T17:05:49.630Z,7.73
2018-12-19T17:08:18.327Z,8.53
2018-12-19T17:10:47.148Z,13.67
2018-12-19T17:13:15.681Z,14.07
2018-12-19T17:15:46.717Z,14.73
2018-12-19T17:18:15.713Z,10.27
2018-12-19T17:20:46.885Z,9.07
2018-12-19T17:23:19.239Z,9.50
2018-12-19T17:25:49.251Z,8.53
2018-12-19T17:28:19.911Z,9.67
2018-12-19T17:32:03.193Z,7.83
2018-12-19T17:34:36.024Z,10.53
2018-12-19T17:37:06.117Z,10.70
2018-12-19T17:39:35.011Z,10.13
2018-12-19T17:42:03.964Z,9.23
2018-12-19T17:44:40.026Z,11.77
2018-12-19T17:47:09.730Z,13.57
2018-12-19T17:49:44.416Z,10.70
2018-12-19T17:52:17.856Z,10.37
2018-12-19T17:54:51.381Z,10.43
2018-12-19T17:57:22.387Z,12.47
2018-12-19T18:00:02.305Z,11.80
2018-12-19T18:02:32.770Z,10.90
2018-12-19T18:05:02.641Z,10.13
2018-12-19T18:07:32.322Z,8.77
2018-12-19T18:15:15.955Z,10.87
2018-12-19T18:17:48.239Z,14.10
2018-12-19T18:20:18.605Z,14.07
2018-12-19T18:22:48.507Z,11.10
2018-12-19T18:25:18.077Z,10.53
2018-12-19T18:27:48.806Z,11.10
2018-12-19T18:30:21.380Z,11.17
2018-12-19T18:32:51.098Z,11.23
2018-12-19T18:35:21.936Z,14.13
2018-12-19T18:37:52.191Z,11.93
2018-12-19T18:40:22.546Z,11.63
2018-12-19T18:43:12.764Z,12.33
2018-12-19T18:45:56.477Z,14.27
2018-12-19T18:48:38.522Z,15.63
2018-12-19T18:51:23.270Z,15.83
2018-12-19T18:53:57.522Z,12.07
2018-12-19T18:56:28.571Z,15.00
2018-12-19T18:59:02.610Z,12.10
2018-12-19T19:01:43.408Z,14.10
2018-12-19T19:04:14.418Z,11.97
2018-12-19T19:06:44.924Z,16.10
2018-12-19T19:09:14.756Z,13.47
2018-12-19T19:11:46.481Z,13.63
2018-12-19T19:14:17.886Z,16.67
2018-12-19T19:16:47.521Z,15.53
2018-12-19T19:19:17.622Z,19.27
2018-12-19T19:21:46.666Z,20.00
2018-12-19T19:24:16.510Z,19.93
2018-12-19T19:26:46.132Z,17.80
2018-12-19T19:29:16.024Z,14.60
2018-12-19T19:31:45.724Z,18.90
2018-12-19T19:34:24.878Z,15.57
2018-12-19T19:36:52.081Z,17.87
2018-12-19T19:39:21.730Z,13.70
2018-12-19T19:41:52.927Z,14.13
2018-12-19T19:44:25.340Z,18.20
2018-12-19T19:46:55.704Z,13.07
2018-12-19T19:49:27.582Z,13.07
2018-12-19T19:51:57.669Z,19.70
2018-12-19T19:54:27.277Z,14.63
2018-12-19T19:56:58.229Z,12.50
2018-12-19T19:59:28.693Z,15.23
2018-12-19T20:01:58.811Z,16.30
2018-12-19T20:04:28.956Z,14.90
2018-12-19T20:07:01.136Z,12.57
2018-12-19T20:09:30.811Z,14.37
2018-12-19T20:12:03.180Z,15.23
2018-12-19T20:14:36.228Z,12.53
2018-12-19T20:17:04.795Z,14.83
2018-12-19T20:19:34.332Z,11.20
2018-12-19T20:22:04.744Z,14.90
2018-12-19T20:24:39.561Z,13.90
2018-12-19T20:27:09.381Z,10.60
2018-12-19T20:29:38.448Z,9.03
2018-12-19T20:32:07.405Z,8.37
2018-12-19T20:34:39.005Z,9.50
2018-12-19T20:37:14.767Z,12.43
2018-12-19T20:39:45.817Z,9.93
2018-12-19T20:42:16.056Z,9.47
2018-12-19T20:44:46.916Z,13.13
2018-12-19T20:47:19.584Z,12.37
2018-12-19T20:49:48.968Z,11.97
2018-12-19T20:52:18.882Z,8.13
2018-12-19T20:54:51.362Z,10.77
2018-12-19T20:57:23.059Z,12.60
2018-12-19T20:59:53.621Z,17.80
2018-12-19T21:02:22.619Z,14.70
2018-12-19T21:04:53.641Z,17.40
2018-12-19T21:07:22.793Z,14.73
2018-12-19T21:09:52.856Z,10.93
2018-12-19T21:12:22.911Z,12.43
2018-12-19T21:14:51.771Z,15.07
2018-12-19T21:17:26.751Z,17.73
2018-12-19T21:20:00.687Z,16.00
2018-12-19T21:22:32.156Z,11.00
2018-12-19T21:25:02.197Z,10.80
2018-12-19T21:27:33.851Z,12.73
2018-12-19T21:30:04.247Z,12.50
2018-12-19T21:32:36.841Z,10.90
2018-12-19T21:35:09.316Z,13.87
2018-12-19T21:37:42.018Z,14.23
2018-12-19T21:40:11.985Z,13.43
2018-12-19T21:42:42.643Z,15.37
2018-12-19T21:45:11.350Z,16.73
2018-12-19T21:47:39.902Z,13.73
2018-12-19T21:50:08.809Z,19.93
2018-12-19T21:52:37.439Z,12.30
2018-12-19T21:55:05.934Z,14.67
2018-12-19T21:57:34.644Z,12.63
2018-12-19T22:00:03.815Z,14.90
2018-12-19T22:02:32.408Z,15.27
2018-12-19T22:05:01.076Z,19.43
2018-12-19T22:07:29.917Z,16.80
2018-12-19T22:09:58.876Z,16.70
2018-12-19T22:12:27.558Z,13.73
2018-12-19T22:14:56.510Z,17.57
2018-12-19T22:17:31.251Z,14.20
2018-12-19T22:19:59.992Z,12.93
2018-12-19T22:22:28.871Z,15.07
2018-12-19T22:24:57.585Z,14.83
2018-12-19T22:27:26.431Z,13.37
2018-12-19T22:29:55.430Z,16.03
2018-12-19T22:32:24.248Z,17.60
2018-12-19T22:34:52.344Z,15.50
2018-12-19T22:37:21.989Z,15.97
2018-12-19T22:39:50.898Z,13.83
2018-12-19T22:42:19.793Z,10.60
2018-12-19T22:44:48.460Z,17.73
2018-12-19T22:47:18.125Z,10.50
2018-12-19T22:49:46.845Z,13.10
2018-12-19T22:52:15.630Z,14.23
2018-12-19T22:54:44.210Z,15.23
2018-12-19T22:57:12.714Z,15.87
2018-12-19T22:59:41.900Z,14.13
2018-12-19T23:02:16.632Z,10.43
2018-12-19T23:04:46.932Z,11.43
2018-12-19T23:07:15.853Z,11.57
2018-12-19T23:09:44.620Z,12.77
2018-12-19T23:12:13.416Z,11.67
2018-12-19T23:14:42.526Z,18.10
2018-12-19T23:17:22.282Z,14.43
2018-12-19T23:19:56.999Z,11.77
2018-12-19T23:22:31.761Z,10.67
2018-12-19T23:25:07.344Z,13.63
2018-12-19T23:27:38.358Z,11.53
2018-12-19T23:30:09.490Z,13.90
2018-12-19T23:32:38.401Z,14.00
2018-12-19T23:35:07.725Z,13.47
2018-12-19T23:37:36.596Z,15.87
2018-12-19T23:40:05.553Z,13.07
2018-12-19T23:42:34.742Z,12.50
2018-12-19T23:45:03.493Z,10.57
2018-12-19T23:47:32.079Z,8.27
2018-12-19T23:50:00.778Z,9.70
2018-12-19T23:52:29.664Z,10.50
2018-12-19T23:54:58.678Z,8.50
2018-12-19T23:57:27.264Z,11.23
2018-12-19T23:59:55.946Z,7.80
